Sedov — UELO — position and weather

sailwx.info

Track history (hours):
 
Tides and Currents Weather Stations Pressure Air Temp Water Temp Dewpoint Dewpoint Depression Visibility Wind Speed Wind Dir Waves Ship Positions

Sedov (Russia)

Last reported at 2015-Apr-14 04:11 UTC. Time now 2015-Apr-21 03:02 UTC.
Position N 54°49' E 006°43'.

; draft 6.4 m.

Type: Sailing vessel. MMSI: 273510000.

Date/timePositionNaut miles runAvg speedWind from/ knotsBaromVisibWave heightAir tempDewpointWater temp
2015-Apr-14 04:11N 54°49' E 006°43'5 8.3
2015-Apr-14 03:32N 54°45' E 006°48'8 8.0
2015-Apr-14 02:33N 54°38' E 006°56'8 7.8
2015-Apr-14 01:31N 54°32' E 007°04'8 7.9
2015-Apr-14 00:33N 54°26' E 007°12'8 8.3
2015-Apr-13 23:33N 54°19' E 007°21'9 8.7
2015-Apr-13 22:33N 54°12' E 007°29'9 9.0
2015-Apr-13 21:33N 54°04' E 007°36'8 8.2
2015-Apr-13 20:33N 53°56' E 007°42'7 7.5
2015-Apr-13 19:33N 53°52' E 007°52'9 8.6
2015-Apr-13 18:34N 53°50' E 008°06'8 8.4
2015-Apr-13 17:33N 53°43' E 008°16'7 6.8
2015-Apr-13 16:33N 53°39' E 008°25'6 6.1
2015-Apr-13 15:33N 53°35' E 008°32'2 2.4
2015-Apr-13 14:33N 53°33' E 008°34'0 0.0
2015-Apr-13 13:33N 53°33' E 008°34'0 0.0
2015-Apr-13 12:33N 53°33' E 008°34'0 0.0
2015-Apr-13 11:33N 53°33' E 008°34'0 0.0
2015-Apr-13 10:27N 53°33' E 008°34'0 0.0
2015-Apr-13 09:33N 53°33' E 008°34'0 0.0
2015-Apr-13 08:33N 53°33' E 008°34'0 0.0
2015-Apr-13 07:33N 53°33' E 008°34'0 0.0
2015-Apr-13 06:33N 53°33' E 008°34'0 0.0
2015-Apr-13 05:33N 53°33' E 008°34'0 0.0
2015-Apr-13 04:33N 53°33' E 008°34'0 0.0
2015-Apr-13 03:33N 53°33' E 008°34'0 0.0
2015-Apr-13 02:33N 53°33' E 008°34'0 0.0
2015-Apr-13 01:33N 53°33' E 008°34'0 0.0
2015-Apr-13 00:33N 53°33' E 008°34'0 0.0
2015-Apr-12 23:33N 53°33' E 008°34'0 0.0
2015-Apr-12 22:33N 53°33' E 008°34'0 0.0
2015-Apr-12 21:33N 53°33' E 008°34'0 0.0
2015-Apr-12 20:33N 53°33' E 008°34'0 0.0
2015-Apr-12 19:27N 53°33' E 008°34'0 0.0
2015-Apr-12 18:33N 53°33' E 008°34'0 0.0
2015-Apr-12 17:33N 53°33' E 008°34'0 0.0
2015-Apr-12 16:33N 53°33' E 008°34'0 0.0
2015-Apr-12 15:33N 53°33' E 008°34'0 0.0
2015-Apr-12 14:33N 53°33' E 008°34'0 0.0
2015-Apr-12 13:33N 53°33' E 008°34'0 0.0
2015-Apr-12 12:33N 53°33' E 008°34'0 0.0
2015-Apr-12 11:33N 53°33' E 008°34'0 0.0
2015-Apr-12 10:33N 53°33' E 008°34'0 0.0
2015-Apr-12 09:33N 53°33' E 008°34'0 0.0
2015-Apr-12 08:32N 53°33' E 008°34'0 0.0
2015-Apr-12 07:32N 53°33' E 008°34'0 0.0
2015-Apr-12 06:32N 53°33' E 008°34'0 0.0
2015-Apr-12 05:32N 53°33' E 008°34'0 0.0
2015-Apr-12 04:29N 53°33' E 008°34'0 0.0
2015-Apr-12 03:32N 53°33' E 008°34'0 0.0
2015-Apr-12 02:26N 53°33' E 008°34'0 0.0
2015-Apr-12 01:32N 53°33' E 008°34'0 0.0
2015-Apr-12 00:29N 53°33' E 008°34'0 0.0
2015-Apr-11 23:26N 53°33' E 008°34'0 0.0
2015-Apr-11 22:32N 53°33' E 008°34'0 0.0
2015-Apr-11 21:32N 53°33' E 008°34'0 0.0
2015-Apr-11 20:32N 53°33' E 008°34'0 0.0
2015-Apr-11 19:29N 53°33' E 008°34'0 0.0
2015-Apr-11 18:29N 53°33' E 008°34'0 0.0
2015-Apr-11 17:32N 53°33' E 008°34'0 0.0
2015-Apr-11 16:32N 53°33' E 008°34'0 0.0
2015-Apr-11 15:32N 53°33' E 008°34'0 0.0
2015-Apr-11 14:32N 53°33' E 008°34'0 0.0
2015-Apr-11 13:29N 53°33' E 008°34'0 0.0
2015-Apr-11 12:32N 53°33' E 008°34'0 0.0
2015-Apr-11 11:32N 53°33' E 008°34'0 0.0
2015-Apr-11 10:32N 53°33' E 008°34'0 0.0
2015-Apr-11 09:32N 53°33' E 008°34'0 0.0
2015-Apr-11 08:29N 53°33' E 008°34'0 0.0
2015-Apr-11 07:32N 53°33' E 008°34'0 0.0
2015-Apr-11 06:32N 53°33' E 008°34'0 0.0
2015-Apr-11 05:32N 53°33' E 008°34'0 0.0
2015-Apr-11 04:32N 53°33' E 008°34'0 0.0
2015-Apr-11 03:32N 53°33' E 008°34'0 0.0
2015-Apr-11 02:32N 53°33' E 008°34'0 0.0
2015-Apr-11 01:32N 53°33' E 008°34'0 0.0
2015-Apr-11 00:32N 53°33' E 008°34'0 0.0
2015-Apr-10 23:32N 53°33' E 008°34'0 0.0
2015-Apr-10 22:29N 53°33' E 008°34'0 0.0
2015-Apr-10 21:32N 53°33' E 008°34'0 0.0
2015-Apr-10 20:32N 53°33' E 008°34'0 0.0
2015-Apr-10 19:32N 53°33' E 008°34'0 0.0
2015-Apr-10 18:32N 53°33' E 008°34'0 0.0
2015-Apr-10 17:29N 53°33' E 008°34'0 0.0
2015-Apr-10 16:26N 53°33' E 008°34'0 0.0
2015-Apr-10 15:29N 53°33' E 008°34'0 0.0
2015-Apr-10 14:32N 53°33' E 008°34'0 0.0
2015-Apr-10 13:32N 53°33' E 008°34'0 0.0
2015-Apr-10 12:32N 53°33' E 008°34'0 0.0
2015-Apr-10 11:32N 53°33' E 008°34'0 0.0
2015-Apr-10 10:32N 53°33' E 008°34'0 0.0
2015-Apr-10 09:32N 53°33' E 008°34'0 0.0
2015-Apr-10 08:29N 53°33' E 008°34'0 0.0
2015-Apr-10 07:29N 53°33' E 008°34'0 0.0
2015-Apr-10 06:32N 53°33' E 008°34'0 0.0
2015-Apr-10 05:32N 53°33' E 008°34'0 0.0
2015-Apr-10 04:32N 53°33' E 008°34'0 0.0
2015-Apr-10 03:32N 53°33' E 008°34'0 0.0
2015-Apr-10 02:32N 53°33' E 008°34'0 0.0
2015-Apr-10 01:29N 53°33' E 008°34'0 0.0
2015-Apr-10 00:29N 53°33' E 008°34'0 0.0
2015-Apr-09 23:23N 53°33' E 008°34'0 0.0
2015-Apr-09 22:32N 53°33' E 008°34'0 0.0
2015-Apr-09 21:32N 53°33' E 008°34'0 0.0
2015-Apr-09 20:32N 53°33' E 008°34'0 0.0
2015-Apr-09 19:29N 53°33' E 008°34'0 0.0
2015-Apr-09 18:32N 53°33' E 008°34'0 0.0
2015-Apr-09 17:32N 53°33' E 008°34'0 0.0
2015-Apr-09 16:32N 53°33' E 008°34'0 0.0
2015-Apr-09 15:32N 53°33' E 008°34'0 0.0
2015-Apr-09 14:32N 53°33' E 008°34'0 0.0
2015-Apr-09 13:32N 53°33' E 008°34'0 0.0
2015-Apr-09 12:32N 53°33' E 008°34'0 0.0
2015-Apr-09 11:32N 53°33' E 008°34'0 0.3
2015-Apr-09 10:33N 53°33' E 008°34'8 8.1
2015-Apr-09 09:33N 53°39' E 008°25'8 8.1
2015-Apr-09 08:33N 53°44' E 008°14'7 7.5
2015-Apr-09 07:33N 53°49' E 008°05'8 8.0
2015-Apr-09 06:33N 53°52' E 007°53'7 7.4
2015-Apr-09 05:33N 53°55' E 007°41'8 8.5
2015-Apr-09 04:34N 54°02' E 007°33'8 8.0
2015-Apr-09 03:33N 54°09' E 007°27'8 8.2
2015-Apr-09 02:34N 54°17' E 007°22'8 8.3
2015-Apr-09 01:34N 54°24' E 007°17'8 7.5
2015-Apr-09 00:34N 54°30' E 007°08'8 8.2
2015-Apr-08 23:34N 54°34' E 006°56'6 6.3
2015-Apr-08 22:33N 54°37' E 006°46'1 1.3
2015-Apr-08 21:32N 54°38' E 006°44'1 1.0
2015-Apr-08 20:33N 54°39' E 006°43'1 0.3
2015-Apr-08 17:34N 54°39' E 006°43'1 0.2
2015-Apr-08 13:10N 54°40' E 006°42'5 1.1
2015-Apr-08 09:10N 54°42' E 006°35'11 0.7
2015-Apr-07 18:32N 54°53' E 006°38'9 9.1
2015-Apr-07 17:33N 54°58' E 006°50'8 8.5
2015-Apr-07 16:33N 55°05' E 006°59'8 8.1
2015-Apr-07 15:33N 55°13' E 007°02'8 8.2
2015-Apr-07 14:33N 55°21' E 007°06'8 8.4
2015-Apr-07 13:33N 55°28' E 007°13'7 7.4
2015-Apr-07 12:33N 55°35' E 007°19'4 4.0
2015-Apr-07 11:31N 55°39' E 007°20'  
2015-Apr-05 00:26N 57°47' E 009°25'15 7.9
2015-Apr-04 22:33N 57°52' E 009°51'8 7.7
2015-Apr-04 21:32N 57°53' E 010°06'8 7.7
2015-Apr-04 20:33N 57°52' E 010°20'8 8.1
2015-Apr-04 19:33N 57°48' E 010°33'8 7.7
2015-Apr-04 18:33N 57°44' E 010°46'7 7.3
2015-Apr-04 17:32N 57°37' E 010°41'1 0.2
2015-Apr-04 12:26N 57°37' E 010°40'0 0.0
2015-Apr-04 11:05N 57°37' E 010°40'0 0.0
2015-Apr-04 10:32N 57°37' E 010°40'0 0.0
2015-Apr-04 09:20N 57°37' E 010°40'0 0.0
2015-Apr-04 08:26N 57°37' E 010°40'0 0.0
2015-Apr-04 06:26N 57°37' E 010°40'  
Track history (hours):
 
Tides and Currents Weather Stations Pressure Air Temp Water Temp Dewpoint Dewpoint Depression Visibility Wind Speed Wind Dir Waves Ship Positions

Sedov (Russia)

Last reported at 2015-Apr-14 04:11 UTC. Time now 2015-Apr-21 03:02 UTC.
Position N 54°49' E 006°43'.

; draft 6.4 m.

Type: Sailing vessel. MMSI: 273510000.

Date/timePositionNaut miles runAvg speedWind from/ knotsBaromVisibWave heightAir tempDewpointWater temp
2015-Apr-14 04:11N 54°49' E 006°43'5 8.3
2015-Apr-14 03:32N 54°45' E 006°48'8 8.0
2015-Apr-14 02:33N 54°38' E 006°56'8 7.8
2015-Apr-14 01:31N 54°32' E 007°04'8 7.9
2015-Apr-14 00:33N 54°26' E 007°12'8 8.3
2015-Apr-13 23:33N 54°19' E 007°21'9 8.7
2015-Apr-13 22:33N 54°12' E 007°29'9 9.0
2015-Apr-13 21:33N 54°04' E 007°36'8 8.2
2015-Apr-13 20:33N 53°56' E 007°42'7 7.5
2015-Apr-13 19:33N 53°52' E 007°52'9 8.6
2015-Apr-13 18:34N 53°50' E 008°06'8 8.4
2015-Apr-13 17:33N 53°43' E 008°16'7 6.8
2015-Apr-13 16:33N 53°39' E 008°25'6 6.1
2015-Apr-13 15:33N 53°35' E 008°32'2 2.4
2015-Apr-13 14:33N 53°33' E 008°34'0 0.0
2015-Apr-13 13:33N 53°33' E 008°34'0 0.0
2015-Apr-13 12:33N 53°33' E 008°34'0 0.0
2015-Apr-13 11:33N 53°33' E 008°34'0 0.0
2015-Apr-13 10:27N 53°33' E 008°34'0 0.0
2015-Apr-13 09:33N 53°33' E 008°34'0 0.0
2015-Apr-13 08:33N 53°33' E 008°34'0 0.0
2015-Apr-13 07:33N 53°33' E 008°34'0 0.0
2015-Apr-13 06:33N 53°33' E 008°34'0 0.0
2015-Apr-13 05:33N 53°33' E 008°34'0 0.0
2015-Apr-13 04:33N 53°33' E 008°34'0 0.0
2015-Apr-13 03:33N 53°33' E 008°34'0 0.0
2015-Apr-13 02:33N 53°33' E 008°34'0 0.0
2015-Apr-13 01:33N 53°33' E 008°34'0 0.0
2015-Apr-13 00:33N 53°33' E 008°34'0 0.0
2015-Apr-12 23:33N 53°33' E 008°34'0 0.0
2015-Apr-12 22:33N 53°33' E 008°34'0 0.0
2015-Apr-12 21:33N 53°33' E 008°34'0 0.0
2015-Apr-12 20:33N 53°33' E 008°34'0 0.0
2015-Apr-12 19:27N 53°33' E 008°34'0 0.0
2015-Apr-12 18:33N 53°33' E 008°34'0 0.0
2015-Apr-12 17:33N 53°33' E 008°34'0 0.0
2015-Apr-12 16:33N 53°33' E 008°34'0 0.0
2015-Apr-12 15:33N 53°33' E 008°34'0 0.0
2015-Apr-12 14:33N 53°33' E 008°34'0 0.0
2015-Apr-12 13:33N 53°33' E 008°34'0 0.0
2015-Apr-12 12:33N 53°33' E 008°34'0 0.0
2015-Apr-12 11:33N 53°33' E 008°34'0 0.0
2015-Apr-12 10:33N 53°33' E 008°34'0 0.0
2015-Apr-12 09:33N 53°33' E 008°34'0 0.0
2015-Apr-12 08:32N 53°33' E 008°34'0 0.0
2015-Apr-12 07:32N 53°33' E 008°34'0 0.0
2015-Apr-12 06:32N 53°33' E 008°34'0 0.0
2015-Apr-12 05:32N 53°33' E 008°34'0 0.0
2015-Apr-12 04:29N 53°33' E 008°34'0 0.0
2015-Apr-12 03:32N 53°33' E 008°34'0 0.0
2015-Apr-12 02:26N 53°33' E 008°34'0 0.0
2015-Apr-12 01:32N 53°33' E 008°34'0 0.0
2015-Apr-12 00:29N 53°33' E 008°34'0 0.0
2015-Apr-11 23:26N 53°33' E 008°34'0 0.0
2015-Apr-11 22:32N 53°33' E 008°34'0 0.0
2015-Apr-11 21:32N 53°33' E 008°34'0 0.0
2015-Apr-11 20:32N 53°33' E 008°34'0 0.0
2015-Apr-11 19:29N 53°33' E 008°34'0 0.0
2015-Apr-11 18:29N 53°33' E 008°34'0 0.0
2015-Apr-11 17:32N 53°33' E 008°34'0 0.0
2015-Apr-11 16:32N 53°33' E 008°34'0 0.0
2015-Apr-11 15:32N 53°33' E 008°34'0 0.0
2015-Apr-11 14:32N 53°33' E 008°34'0 0.0
2015-Apr-11 13:29N 53°33' E 008°34'0 0.0
2015-Apr-11 12:32N 53°33' E 008°34'0 0.0
2015-Apr-11 11:32N 53°33' E 008°34'0 0.0
2015-Apr-11 10:32N 53°33' E 008°34'0 0.0
2015-Apr-11 09:32N 53°33' E 008°34'0 0.0
2015-Apr-11 08:29N 53°33' E 008°34'0 0.0
2015-Apr-11 07:32N 53°33' E 008°34'0 0.0
2015-Apr-11 06:32N 53°33' E 008°34'0 0.0
2015-Apr-11 05:32N 53°33' E 008°34'0 0.0
2015-Apr-11 04:32N 53°33' E 008°34'0 0.0
2015-Apr-11 03:32N 53°33' E 008°34'0 0.0
2015-Apr-11 02:32N 53°33' E 008°34'0 0.0
2015-Apr-11 01:32N 53°33' E 008°34'0 0.0
2015-Apr-11 00:32N 53°33' E 008°34'0 0.0
2015-Apr-10 23:32N 53°33' E 008°34'0 0.0
2015-Apr-10 22:29N 53°33' E 008°34'0 0.0
2015-Apr-10 21:32N 53°33' E 008°34'0 0.0
2015-Apr-10 20:32N 53°33' E 008°34'0 0.0
2015-Apr-10 19:32N 53°33' E 008°34'0 0.0
2015-Apr-10 18:32N 53°33' E 008°34'0 0.0
2015-Apr-10 17:29N 53°33' E 008°34'0 0.0
2015-Apr-10 16:26N 53°33' E 008°34'0 0.0
2015-Apr-10 15:29N 53°33' E 008°34'0 0.0
2015-Apr-10 14:32N 53°33' E 008°34'0 0.0
2015-Apr-10 13:32N 53°33' E 008°34'0 0.0
2015-Apr-10 12:32N 53°33' E 008°34'0 0.0
2015-Apr-10 11:32N 53°33' E 008°34'0 0.0
2015-Apr-10 10:32N 53°33' E 008°34'0 0.0
2015-Apr-10 09:32N 53°33' E 008°34'0 0.0
2015-Apr-10 08:29N 53°33' E 008°34'0 0.0
2015-Apr-10 07:29N 53°33' E 008°34'0 0.0
2015-Apr-10 06:32N 53°33' E 008°34'0 0.0
2015-Apr-10 05:32N 53°33' E 008°34'0 0.0
2015-Apr-10 04:32N 53°33' E 008°34'0 0.0
2015-Apr-10 03:32N 53°33' E 008°34'0 0.0
2015-Apr-10 02:32N 53°33' E 008°34'0 0.0
2015-Apr-10 01:29N 53°33' E 008°34'0 0.0
2015-Apr-10 00:29N 53°33' E 008°34'0 0.0
2015-Apr-09 23:23N 53°33' E 008°34'0 0.0
2015-Apr-09 22:32N 53°33' E 008°34'0 0.0
2015-Apr-09 21:32N 53°33' E 008°34'0 0.0
2015-Apr-09 20:32N 53°33' E 008°34'0 0.0
2015-Apr-09 19:29N 53°33' E 008°34'0 0.0
2015-Apr-09 18:32N 53°33' E 008°34'0 0.0
2015-Apr-09 17:32N 53°33' E 008°34'0 0.0
2015-Apr-09 16:32N 53°33' E 008°34'0 0.0
2015-Apr-09 15:32N 53°33' E 008°34'0 0.0
2015-Apr-09 14:32N 53°33' E 008°34'0 0.0
2015-Apr-09 13:32N 53°33' E 008°34'0 0.0
2015-Apr-09 12:32N 53°33' E 008°34'0 0.0
2015-Apr-09 11:32N 53°33' E 008°34'0 0.3
2015-Apr-09 10:33N 53°33' E 008°34'8 8.1
2015-Apr-09 09:33N 53°39' E 008°25'8 8.1
2015-Apr-09 08:33N 53°44' E 008°14'7 7.5
2015-Apr-09 07:33N 53°49' E 008°05'8 8.0
2015-Apr-09 06:33N 53°52' E 007°53'7 7.4
2015-Apr-09 05:33N 53°55' E 007°41'8 8.5
2015-Apr-09 04:34N 54°02' E 007°33'8 8.0
2015-Apr-09 03:33N 54°09' E 007°27'8 8.2
2015-Apr-09 02:34N 54°17' E 007°22'8 8.3
2015-Apr-09 01:34N 54°24' E 007°17'8 7.5
2015-Apr-09 00:34N 54°30' E 007°08'8 8.2
2015-Apr-08 23:34N 54°34' E 006°56'6 6.3
2015-Apr-08 22:33N 54°37' E 006°46'1 1.3
2015-Apr-08 21:32N 54°38' E 006°44'1 1.0
2015-Apr-08 20:33N 54°39' E 006°43'1 0.3
2015-Apr-08 17:34N 54°39' E 006°43'1 0.2
2015-Apr-08 13:10N 54°40' E 006°42'5 1.1
2015-Apr-08 09:10N 54°42' E 006°35'11 0.7
2015-Apr-07 18:32N 54°53' E 006°38'9 9.1
2015-Apr-07 17:33N 54°58' E 006°50'8 8.5
2015-Apr-07 16:33N 55°05' E 006°59'8 8.1
2015-Apr-07 15:33N 55°13' E 007°02'8 8.2
2015-Apr-07 14:33N 55°21' E 007°06'8 8.4
2015-Apr-07 13:33N 55°28' E 007°13'7 7.4
2015-Apr-07 12:33N 55°35' E 007°19'4 4.0
2015-Apr-07 11:31N 55°39' E 007°20'  
2015-Apr-05 00:26N 57°47' E 009°25'15 7.9
2015-Apr-04 22:33N 57°52' E 009°51'8 7.7
2015-Apr-04 21:32N 57°53' E 010°06'8 7.7
2015-Apr-04 20:33N 57°52' E 010°20'8 8.1
2015-Apr-04 19:33N 57°48' E 010°33'8 7.7
2015-Apr-04 18:33N 57°44' E 010°46'7 7.3
2015-Apr-04 17:32N 57°37' E 010°41'1 0.2
2015-Apr-04 12:26N 57°37' E 010°40'0 0.0
2015-Apr-04 11:05N 57°37' E 010°40'0 0.0
2015-Apr-04 10:32N 57°37' E 010°40'0 0.0
2015-Apr-04 09:20N 57°37' E 010°40'0 0.0
2015-Apr-04 08:26N 57°37' E 010°40'0 0.0
2015-Apr-04 06:26N 57°37' E 010°40'  

Dump ship's entire track history